createdAt,value
2022-08-10T00:00:25.219Z,985.50
2022-08-10T00:01:25.206Z,985.49
2022-08-10T00:02:25.062Z,985.48
2022-08-10T00:03:25.010Z,985.49
2022-08-10T00:04:24.914Z,985.55
2022-08-10T00:05:24.837Z,985.54
2022-08-10T00:06:24.760Z,985.52
2022-08-10T00:07:24.682Z,985.55
2022-08-10T00:08:24.609Z,985.56
2022-08-10T00:09:24.530Z,985.53
2022-08-10T00:10:24.455Z,985.53
2022-08-10T00:11:24.378Z,985.49
2022-08-10T00:12:53.258Z,985.48
2022-08-10T00:13:24.228Z,985.48
2022-08-10T00:14:24.148Z,985.50
2022-08-10T00:15:51.924Z,985.48
2022-08-10T00:16:23.995Z,985.48
2022-08-10T00:17:23.916Z,985.47
2022-08-10T00:18:31.499Z,985.45
2022-08-10T00:19:23.766Z,985.51
2022-08-10T00:20:23.689Z,985.46
2022-08-10T00:21:23.613Z,985.48
2022-08-10T00:22:23.539Z,985.46
2022-08-10T00:23:23.458Z,985.46
2022-08-10T00:24:23.415Z,985.49
2022-08-10T00:25:23.308Z,985.50
2022-08-10T00:26:23.230Z,985.47
2022-08-10T00:27:52.570Z,985.50
2022-08-10T00:28:23.076Z,985.48
2022-08-10T00:29:22.998Z,985.48
2022-08-10T00:30:22.927Z,985.46
2022-08-10T00:31:22.847Z,985.43
2022-08-10T00:32:22.770Z,985.43
2022-08-10T00:33:22.694Z,985.42
2022-08-10T00:34:22.619Z,985.40
2022-08-10T00:35:22.545Z,985.41
2022-08-10T00:36:22.466Z,985.37
2022-08-10T00:37:22.389Z,985.37
2022-08-10T00:38:22.311Z,985.35
2022-08-10T00:39:22.313Z,985.34
2022-08-10T00:40:35.238Z,985.38
2022-08-10T00:41:22.082Z,985.38
2022-08-10T00:42:22.008Z,985.34
2022-08-10T00:43:23.599Z,985.35
2022-08-10T00:44:21.852Z,985.34
2022-08-10T00:45:21.776Z,985.33
2022-08-10T00:46:21.705Z,985.31
2022-08-10T00:47:37.429Z,985.34
2022-08-10T00:48:21.545Z,985.33
2022-08-10T00:49:21.469Z,985.33
2022-08-10T00:50:21.390Z,985.33
2022-08-10T00:51:21.315Z,985.29
2022-08-10T00:52:21.253Z,985.29
2022-08-10T00:53:21.163Z,985.28
2022-08-10T00:54:24.367Z,985.28
2022-08-10T00:55:21.006Z,985.25
2022-08-10T00:57:15.244Z,985.28
2022-08-10T00:57:20.855Z,985.26
2022-08-10T00:58:20.780Z,985.28
2022-08-10T00:59:20.703Z,985.27
2022-08-10T01:00:20.625Z,985.26
2022-08-10T01:02:07.514Z,985.24
2022-08-10T01:02:20.491Z,985.26
2022-08-10T01:04:36.575Z,985.22
2022-08-10T01:04:40.206Z,985.22
2022-08-10T01:05:20.598Z,985.21
2022-08-10T01:06:20.172Z,985.24
2022-08-10T01:07:20.086Z,985.22
2022-08-10T01:08:20.010Z,985.23
2022-08-10T01:09:19.936Z,985.21
2022-08-10T01:10:19.859Z,985.27
2022-08-10T01:12:37.812Z,985.24
2022-08-10T01:12:39.169Z,985.25
2022-08-10T01:13:19.626Z,985.25
2022-08-10T01:14:19.551Z,985.22
2022-08-10T01:15:19.477Z,985.23
2022-08-10T01:16:19.395Z,985.25
2022-08-10T01:17:19.315Z,985.23
2022-08-10T01:18:19.238Z,985.24
2022-08-10T01:19:19.160Z,985.26
2022-08-10T01:20:27.489Z,985.21
2022-08-10T01:21:19.010Z,985.21
2022-08-10T01:22:18.933Z,985.21
2022-08-10T01:23:18.858Z,985.22
2022-08-10T01:24:24.982Z,985.25
2022-08-10T01:25:18.701Z,985.25
2022-08-10T01:26:30.805Z,985.28
2022-08-10T01:27:18.548Z,985.25
2022-08-10T01:28:18.470Z,985.25
2022-08-10T01:29:18.395Z,985.26
2022-08-10T01:30:18.318Z,985.26
2022-08-10T01:31:18.243Z,985.27
2022-08-10T01:32:18.161Z,985.28
2022-08-10T01:33:18.085Z,985.30
2022-08-10T01:34:18.172Z,985.26
2022-08-10T01:35:17.940Z,985.26
2022-08-10T01:36:17.852Z,985.27
2022-08-10T01:37:17.774Z,985.26
2022-08-10T01:38:17.705Z,985.29
2022-08-10T01:39:17.673Z,985.30
2022-08-10T01:40:17.548Z,985.28
2022-08-10T01:41:17.467Z,985.26
2022-08-10T01:42:17.389Z,985.27
2022-08-10T01:43:17.316Z,985.24
2022-08-10T01:44:20.033Z,985.22
2022-08-10T01:45:17.156Z,985.23
2022-08-10T01:46:17.079Z,985.24
2022-08-10T01:47:21.685Z,985.21
2022-08-10T01:48:16.998Z,985.22
2022-08-10T01:49:16.851Z,985.17
2022-08-10T01:50:16.774Z,985.21
2022-08-10T01:51:16.698Z,985.24
2022-08-10T01:52:18.203Z,985.22
2022-08-10T01:53:16.541Z,985.22
2022-08-10T01:54:16.463Z,985.25
2022-08-10T01:55:16.382Z,985.24
2022-08-10T01:56:16.312Z,985.19
2022-08-10T01:57:16.233Z,985.21
2022-08-10T01:58:16.156Z,985.22
2022-08-10T01:59:16.074Z,985.25
2022-08-10T02:00:16.001Z,985.26
2022-08-10T02:01:17.102Z,985.26
2022-08-10T02:02:15.852Z,985.23
2022-08-10T02:03:15.765Z,985.24
2022-08-10T02:04:15.691Z,985.27
2022-08-10T02:05:15.613Z,985.30
2022-08-10T02:06:15.537Z,985.25
2022-08-10T02:07:15.455Z,985.23
2022-08-10T02:08:15.381Z,985.21
2022-08-10T02:09:15.315Z,985.21
2022-08-10T02:10:15.223Z,985.25
2022-08-10T02:11:15.151Z,985.21
2022-08-10T02:12:15.072Z,985.23
2022-08-10T02:13:14.994Z,985.20
2022-08-10T02:14:14.916Z,985.28
2022-08-10T02:15:14.835Z,985.26
2022-08-10T02:16:14.760Z,985.22
2022-08-10T02:17:57.820Z,985.24
2022-08-10T02:18:14.608Z,985.22
2022-08-10T02:19:14.524Z,985.21
2022-08-10T02:20:14.452Z,985.18
2022-08-10T02:21:14.375Z,985.21
2022-08-10T02:22:36.275Z,985.20
2022-08-10T02:23:14.218Z,985.19
2022-08-10T02:24:14.142Z,985.20
2022-08-10T02:25:40.070Z,985.21
2022-08-10T02:26:13.992Z,985.21
2022-08-10T02:27:13.905Z,985.23
2022-08-10T02:28:30.006Z,985.23
2022-08-10T02:29:13.751Z,985.23
2022-08-10T02:30:13.676Z,985.23
2022-08-10T02:31:13.598Z,985.21
2022-08-10T02:32:13.525Z,985.18
2022-08-10T02:33:13.443Z,985.16
2022-08-10T02:34:13.366Z,985.17
2022-08-10T02:35:22.664Z,985.18
2022-08-10T02:36:13.211Z,985.14
2022-08-10T02:37:13.528Z,985.15
2022-08-10T02:38:13.054Z,985.18
2022-08-10T02:39:13.051Z,985.17
2022-08-10T02:45:02.152Z,985.15
2022-08-10T02:45:13.653Z,985.17
2022-08-10T02:45:17.610Z,985.17
2022-08-10T02:45:23.253Z,985.18
2022-08-10T02:45:27.903Z,985.19
2022-08-10T02:45:29.609Z,985.15
2022-08-10T02:46:12.432Z,985.14
2022-08-10T02:47:12.353Z,985.13
2022-08-10T02:48:12.277Z,985.15
2022-08-10T02:49:12.198Z,985.15
2022-08-10T02:50:12.123Z,985.14
2022-08-10T02:51:12.050Z,985.13
2022-08-10T02:52:11.970Z,985.12
2022-08-10T02:53:54.531Z,985.15
2022-08-10T02:54:11.811Z,985.12
2022-08-10T02:55:17.520Z,985.14
2022-08-10T02:56:11.663Z,985.16
2022-08-10T02:57:11.576Z,985.14
2022-08-10T02:58:16.624Z,985.17
2022-08-10T02:59:11.420Z,985.17
2022-08-10T03:00:11.343Z,985.16
2022-08-10T03:01:11.314Z,985.19
2022-08-10T03:02:11.184Z,985.19
2022-08-10T03:03:11.107Z,985.17
2022-08-10T03:04:11.031Z,985.14
2022-08-10T03:05:10.954Z,985.14
2022-08-10T03:06:10.878Z,985.14
2022-08-10T03:07:10.795Z,985.14
2022-08-10T03:08:10.720Z,985.13
2022-08-10T03:09:10.641Z,985.14
2022-08-10T03:10:14.382Z,985.11
2022-08-10T03:11:10.483Z,985.11
2022-08-10T03:12:35.394Z,985.13
2022-08-10T03:13:10.337Z,985.14
2022-08-10T03:14:10.253Z,985.11
2022-08-10T03:15:10.172Z,985.13
2022-08-10T03:16:10.095Z,985.14
2022-08-10T03:17:10.015Z,985.19
2022-08-10T03:18:09.942Z,985.20
2022-08-10T03:20:35.313Z,985.20
2022-08-10T03:20:36.464Z,985.25
2022-08-10T03:21:11.955Z,985.24
2022-08-10T03:22:09.627Z,985.25
2022-08-10T03:23:09.551Z,985.27
2022-08-10T03:24:30.199Z,985.28
2022-08-10T03:25:09.391Z,985.28
2022-08-10T03:26:09.315Z,985.29
2022-08-10T03:27:09.237Z,985.26
2022-08-10T03:28:09.156Z,985.28
2022-08-10T03:29:09.079Z,985.27
2022-08-10T03:30:28.587Z,985.25
2022-08-10T03:31:08.924Z,985.26
2022-08-10T03:32:08.846Z,985.24
2022-08-10T03:33:08.768Z,985.27
2022-08-10T03:34:22.099Z,985.25
2022-08-10T03:35:08.607Z,985.24
2022-08-10T03:36:42.054Z,985.23
2022-08-10T03:37:08.456Z,985.22
2022-08-10T03:38:08.376Z,985.26
2022-08-10T03:39:08.310Z,985.26
2022-08-10T03:40:08.219Z,985.25
2022-08-10T03:41:08.143Z,985.24
2022-08-10T03:42:08.062Z,985.22
2022-08-10T03:43:07.987Z,985.21
2022-08-10T03:44:07.908Z,985.22
2022-08-10T03:45:07.828Z,985.23
2022-08-10T03:46:07.751Z,985.25
2022-08-10T03:47:15.920Z,985.21
2022-08-10T03:48:07.598Z,985.25
2022-08-10T03:49:07.513Z,985.23
2022-08-10T03:50:28.101Z,985.22
2022-08-10T03:51:07.360Z,985.23
2022-08-10T03:52:07.285Z,985.23
2022-08-10T03:53:07.206Z,985.21
2022-08-10T03:54:07.612Z,985.23
2022-08-10T03:55:07.048Z,985.22
2022-08-10T03:56:28.529Z,985.25
2022-08-10T03:57:06.892Z,985.27
2022-08-10T03:58:06.816Z,985.29
2022-08-10T03:59:06.733Z,985.35
2022-08-10T04:00:06.656Z,985.33
2022-08-10T04:01:06.627Z,985.34
2022-08-10T04:02:44.991Z,985.31
2022-08-10T04:03:06.421Z,985.35
2022-08-10T04:04:10.836Z,985.33
2022-08-10T04:05:06.264Z,985.36
2022-08-10T04:06:06.185Z,985.37
2022-08-10T04:07:06.108Z,985.35
2022-08-10T04:08:06.028Z,985.35
2022-08-10T04:09:05.953Z,985.39
2022-08-10T04:10:05.872Z,985.38
2022-08-10T04:11:05.798Z,985.38
2022-08-10T04:12:05.714Z,985.36
2022-08-10T04:13:05.639Z,985.38
2022-08-10T04:14:05.564Z,985.36
2022-08-10T04:15:05.482Z,985.42
2022-08-10T04:16:07.432Z,985.42
2022-08-10T04:17:05.329Z,985.43
2022-08-10T04:18:06.543Z,985.44
2022-08-10T04:19:05.165Z,985.43
2022-08-10T04:20:05.089Z,985.48
2022-08-10T04:21:05.013Z,985.47
2022-08-10T04:22:04.931Z,985.49
2022-08-10T04:23:04.853Z,985.53
2022-08-10T04:24:04.775Z,985.50
2022-08-10T04:25:04.701Z,985.53
2022-08-10T04:26:04.617Z,985.52
2022-08-10T04:27:04.540Z,985.53
2022-08-10T04:28:04.462Z,985.56
2022-08-10T04:29:04.385Z,985.55
2022-08-10T04:30:04.304Z,985.55
2022-08-10T04:31:04.225Z,985.56
2022-08-10T04:32:04.153Z,985.56
2022-08-10T04:33:04.071Z,985.58
2022-08-10T04:34:08.530Z,985.57
2022-08-10T04:35:03.917Z,985.58
2022-08-10T04:36:03.832Z,985.56
2022-08-10T04:37:08.626Z,985.57
2022-08-10T04:38:03.677Z,985.58
2022-08-10T04:39:03.600Z,985.56
2022-08-10T04:40:03.518Z,985.58
2022-08-10T04:41:03.446Z,985.55
2022-08-10T04:42:03.366Z,985.55
2022-08-10T04:43:10.411Z,985.54
2022-08-10T04:44:03.204Z,985.51
2022-08-10T04:45:03.133Z,985.50
2022-08-10T04:46:03.050Z,985.50
2022-08-10T04:47:02.981Z,985.49
2022-08-10T04:48:03.323Z,985.54
2022-08-10T04:49:02.815Z,985.57
2022-08-10T04:50:02.734Z,985.52
2022-08-10T04:51:02.662Z,985.49
2022-08-10T04:52:02.591Z,985.50
2022-08-10T04:53:02.503Z,985.50
2022-08-10T04:54:06.941Z,985.49
2022-08-10T04:55:02.344Z,985.48
2022-08-10T04:56:02.264Z,985.47
2022-08-10T04:57:02.189Z,985.49
2022-08-10T04:58:02.107Z,985.48
2022-08-10T04:59:02.037Z,985.46
2022-08-10T05:00:01.952Z,985.49
2022-08-10T05:01:01.951Z,985.48
2022-08-10T05:02:22.590Z,985.45
2022-08-10T05:03:01.719Z,985.46
2022-08-10T05:04:35.130Z,985.45
2022-08-10T05:05:01.560Z,985.49
2022-08-10T05:06:01.554Z,985.51
2022-08-10T05:07:01.402Z,985.52
2022-08-10T05:08:01.325Z,985.52
2022-08-10T05:09:01.247Z,985.48
2022-08-10T05:10:06.608Z,985.47
2022-08-10T05:11:01.092Z,985.45
2022-08-10T05:12:01.014Z,985.45
2022-08-10T05:13:00.935Z,985.46
2022-08-10T05:14:00.862Z,985.43
2022-08-10T05:15:00.776Z,985.42
2022-08-10T05:16:00.700Z,985.43
2022-08-10T05:17:00.619Z,985.44
2022-08-10T05:18:08.087Z,985.43
2022-08-10T05:19:00.465Z,985.45
2022-08-10T05:20:03.757Z,985.44
2022-08-10T05:21:00.312Z,985.46
2022-08-10T05:22:04.424Z,985.44
2022-08-10T05:23:00.155Z,985.47
2022-08-10T05:24:00.083Z,985.44
2022-08-10T05:24:59.994Z,985.50
2022-08-10T05:25:59.917Z,985.48
2022-08-10T05:27:09.486Z,985.51
2022-08-10T05:28:04.296Z,985.50
2022-08-10T05:28:59.683Z,985.52
2022-08-10T05:30:01.520Z,985.50
2022-08-10T05:30:59.527Z,985.50
2022-08-10T05:31:59.446Z,985.50
2022-08-10T05:33:02.591Z,985.51
2022-08-10T05:33:59.292Z,985.51
2022-08-10T05:34:59.215Z,985.54
2022-08-10T05:35:59.131Z,985.53
2022-08-10T05:36:59.056Z,985.49
2022-08-10T05:38:13.460Z,985.53
2022-08-10T05:38:58.899Z,985.54
2022-08-10T05:39:58.856Z,985.56
2022-08-10T05:40:58.744Z,985.52
2022-08-10T05:42:01.058Z,985.57
2022-08-10T05:42:58.590Z,985.55
2022-08-10T05:43:58.508Z,985.56
2022-08-10T05:44:58.432Z,985.60
2022-08-10T05:46:18.652Z,985.60
2022-08-10T05:46:58.276Z,985.62
2022-08-10T05:48:54.646Z,985.62
2022-08-10T05:49:01.144Z,985.58
2022-08-10T05:49:58.042Z,985.63
2022-08-10T05:50:57.965Z,985.58
2022-08-10T05:51:57.887Z,985.56
2022-08-10T05:52:57.811Z,985.55
2022-08-10T05:54:01.893Z,985.55
2022-08-10T05:55:02.599Z,985.55
2022-08-10T05:55:57.580Z,985.54
2022-08-10T05:56:58.430Z,985.56
2022-08-10T05:57:57.424Z,985.55
2022-08-10T05:58:57.339Z,985.58
2022-08-10T06:00:34.195Z,985.60
2022-08-10T06:00:57.275Z,985.58
2022-08-10T06:02:30.767Z,985.58
2022-08-10T06:02:57.028Z,985.55
2022-08-10T06:03:56.950Z,985.61
2022-08-10T06:04:56.879Z,985.61
2022-08-10T06:05:56.804Z,985.64
2022-08-10T06:06:56.720Z,985.62
2022-08-10T06:07:56.672Z,985.65
2022-08-10T06:08:56.566Z,985.63
2022-08-10T06:09:59.777Z,985.64
2022-08-10T06:12:26.487Z,985.60
2022-08-10T06:12:26.565Z,985.63
2022-08-10T06:12:56.814Z,985.62
2022-08-10T06:13:59.789Z,985.65
2022-08-10T06:14:59.835Z,985.64
2022-08-10T06:15:56.021Z,985.65
2022-08-10T06:16:55.947Z,985.63
2022-08-10T06:18:01.550Z,985.63
2022-08-10T06:18:55.792Z,985.61
2022-08-10T06:19:55.710Z,985.62
2022-08-10T06:20:55.635Z,985.63
2022-08-10T06:22:01.144Z,985.66
2022-08-10T06:22:55.477Z,985.65
2022-08-10T06:23:55.404Z,985.66
2022-08-10T06:25:23.118Z,985.66
2022-08-10T06:26:12.074Z,985.65
2022-08-10T06:26:55.174Z,985.69
2022-08-10T06:27:55.095Z,985.69
2022-08-10T06:29:03.735Z,985.69
2022-08-10T06:29:54.938Z,985.67
2022-08-10T06:30:54.864Z,985.66
2022-08-10T06:31:54.790Z,985.69
2022-08-10T06:32:54.706Z,985.72
2022-08-10T06:33:54.630Z,985.69
2022-08-10T06:34:54.554Z,985.71
2022-08-10T06:35:54.475Z,985.72
2022-08-10T06:36:54.461Z,985.68
2022-08-10T06:37:54.323Z,985.70
2022-08-10T06:38:54.395Z,985.69
2022-08-10T06:39:54.225Z,985.66
2022-08-10T06:40:54.098Z,985.67
2022-08-10T06:42:01.372Z,985.69
2022-08-10T06:42:53.937Z,985.71
2022-08-10T06:43:53.860Z,985.69
2022-08-10T06:44:53.788Z,985.69
2022-08-10T06:46:07.696Z,985.74
2022-08-10T06:46:53.631Z,985.71
2022-08-10T06:47:53.550Z,985.71
2022-08-10T06:48:53.481Z,985.70
2022-08-10T06:49:53.397Z,985.72
2022-08-10T06:50:57.968Z,985.70
2022-08-10T06:51:57.195Z,985.68
2022-08-10T06:52:53.173Z,985.67
2022-08-10T06:53:55.071Z,985.71
2022-08-10T06:54:53.020Z,985.71
2022-08-10T06:55:56.643Z,985.68
2022-08-10T06:57:15.059Z,985.66
2022-08-10T06:57:59.864Z,985.67
2022-08-10T06:58:52.712Z,985.68
2022-08-10T06:59:52.633Z,985.66
2022-08-10T07:00:52.580Z,985.62
2022-08-10T07:01:52.482Z,985.64
2022-08-10T07:02:52.408Z,985.65
2022-08-10T07:03:52.328Z,985.66
2022-08-10T07:04:52.253Z,985.67
2022-08-10T07:05:52.175Z,985.68
2022-08-10T07:06:52.103Z,985.67
2022-08-10T07:07:52.030Z,985.68
2022-08-10T07:08:51.949Z,985.70
2022-08-10T07:09:51.872Z,985.69
2022-08-10T07:10:51.800Z,985.71
2022-08-10T07:11:51.717Z,985.69
2022-08-10T07:12:51.645Z,985.67
2022-08-10T07:14:15.696Z,985.69
2022-08-10T07:14:51.515Z,985.67
2022-08-10T07:15:57.258Z,985.69
2022-08-10T07:16:51.343Z,985.65
2022-08-10T07:17:51.263Z,985.68
2022-08-10T07:18:51.194Z,985.67
2022-08-10T07:19:52.177Z,985.66
2022-08-10T07:20:51.040Z,985.65
2022-08-10T07:21:50.959Z,985.65
2022-08-10T07:23:02.603Z,985.66
2022-08-10T07:24:00.030Z,985.66
2022-08-10T07:24:50.736Z,985.73
2022-08-10T07:25:50.659Z,985.68
2022-08-10T07:26:50.587Z,985.69
2022-08-10T07:27:58.563Z,985.69
2022-08-10T07:28:50.434Z,985.71
2022-08-10T07:29:53.378Z,985.68
2022-08-10T07:30:50.280Z,985.68
2022-08-10T07:31:57.096Z,985.65
2022-08-10T07:32:50.131Z,985.64
2022-08-10T07:33:50.053Z,985.64
2022-08-10T07:34:49.983Z,985.66
2022-08-10T07:35:49.906Z,985.62
2022-08-10T07:36:49.830Z,985.60
2022-08-10T07:37:49.756Z,985.60
2022-08-10T07:38:49.682Z,985.59
2022-08-10T07:40:02.552Z,985.57
2022-08-10T07:40:49.534Z,985.63
2022-08-10T07:41:49.456Z,985.60
2022-08-10T07:42:49.383Z,985.58
2022-08-10T07:43:49.307Z,985.60
2022-08-10T07:44:49.234Z,985.63
2022-08-10T07:45:49.155Z,985.62
2022-08-10T07:46:49.086Z,985.59
2022-08-10T07:47:54.553Z,985.57
2022-08-10T07:48:48.934Z,985.57
2022-08-10T07:49:48.862Z,985.55
2022-08-10T07:50:48.793Z,985.56
2022-08-10T07:51:54.474Z,985.58
2022-08-10T07:52:48.644Z,985.58
2022-08-10T07:53:48.562Z,985.59
2022-08-10T07:54:48.489Z,985.61
2022-08-10T07:56:01.787Z,985.55
2022-08-10T07:56:49.440Z,985.58
2022-08-10T07:57:48.272Z,985.59
2022-08-10T07:58:52.024Z,985.57
2022-08-10T07:59:48.122Z,985.56
2022-08-10T08:00:48.051Z,985.61
2022-08-10T08:01:48.106Z,985.59
2022-08-10T08:02:47.903Z,985.54
2022-08-10T08:04:10.853Z,985.57
2022-08-10T08:04:47.759Z,985.49
2022-08-10T08:05:59.054Z,985.50
2022-08-10T08:06:47.616Z,985.49
2022-08-10T08:07:47.537Z,985.48
2022-08-10T08:08:47.464Z,985.50
2022-08-10T08:09:57.762Z,985.45
2022-08-10T08:10:47.317Z,985.41
2022-08-10T08:11:47.247Z,985.37
2022-08-10T08:12:47.172Z,985.51
2022-08-10T08:13:47.100Z,985.45
2022-08-10T08:14:47.027Z,985.53
2022-08-10T08:16:18.750Z,985.48
2022-08-10T08:16:46.882Z,985.50
2022-08-10T08:17:46.809Z,985.54
2022-08-10T08:19:03.842Z,985.49
2022-08-10T08:19:55.318Z,985.51
2022-08-10T08:20:46.600Z,985.54
2022-08-10T08:24:07.377Z,985.60
2022-08-10T08:24:10.070Z,985.52
2022-08-10T08:24:24.107Z,985.58
2022-08-10T08:24:46.301Z,985.50
2022-08-10T08:25:46.229Z,985.49
2022-08-10T08:26:46.173Z,985.53
2022-08-10T08:27:47.874Z,985.54
2022-08-10T08:28:46.018Z,985.54
2022-08-10T08:29:45.948Z,985.50
2022-08-10T08:30:48.923Z,985.56
2022-08-10T08:32:02.144Z,985.55
2022-08-10T08:32:45.726Z,985.56
2022-08-10T08:33:45.655Z,985.55
2022-08-10T08:34:45.587Z,985.62
2022-08-10T08:35:45.517Z,985.65
2022-08-10T08:36:45.441Z,985.55
2022-08-10T08:38:32.172Z,985.59
2022-08-10T08:38:45.300Z,985.57
2022-08-10T08:39:47.369Z,985.60
2022-08-10T08:40:45.157Z,985.59
2022-08-10T08:41:45.087Z,985.57
2022-08-10T08:42:45.010Z,985.57
2022-08-10T08:43:44.941Z,985.61
2022-08-10T08:44:44.871Z,985.63
2022-08-10T08:45:54.033Z,985.56
2022-08-10T08:46:44.726Z,985.59
2022-08-10T08:48:03.202Z,985.63
2022-08-10T08:48:44.588Z,985.53
2022-08-10T08:50:07.958Z,985.52
2022-08-10T08:50:44.447Z,985.55
2022-08-10T08:52:11.376Z,985.55
2022-08-10T08:52:44.301Z,985.50
2022-08-10T08:54:01.087Z,985.54
2022-08-10T08:54:44.163Z,985.50
2022-08-10T08:55:52.359Z,985.53
2022-08-10T08:56:49.577Z,985.49
2022-08-10T08:57:50.330Z,985.52
2022-08-10T08:58:43.882Z,985.47
2022-08-10T08:59:43.811Z,985.55
2022-08-10T09:00:43.741Z,985.54
2022-08-10T09:01:43.694Z,985.48
2022-08-10T09:02:43.598Z,985.50
2022-08-10T09:03:43.529Z,985.55
2022-08-10T09:04:43.456Z,985.50
2022-08-10T09:05:59.790Z,985.53
2022-08-10T09:06:43.316Z,985.50
2022-08-10T09:08:00.207Z,985.50
2022-08-10T09:08:43.176Z,985.51
2022-08-10T09:09:43.112Z,985.53
2022-08-10T09:10:43.039Z,985.49
2022-08-10T09:11:42.970Z,985.52
2022-08-10T09:12:42.896Z,985.46
2022-08-10T09:13:42.830Z,985.46
2022-08-10T09:14:42.759Z,985.45
2022-08-10T09:15:42.689Z,985.54
2022-08-10T09:16:42.619Z,985.49
2022-08-10T09:17:42.550Z,985.48
2022-08-10T09:18:42.477Z,985.49
2022-08-10T09:19:42.409Z,985.48
2022-08-10T09:20:42.338Z,985.48
2022-08-10T09:21:52.335Z,985.46
2022-08-10T09:22:42.200Z,985.40
2022-08-10T09:24:04.409Z,985.48
2022-08-10T09:24:42.069Z,985.45
2022-08-10T09:25:41.993Z,985.48
2022-08-10T09:26:41.919Z,985.47
2022-08-10T09:27:43.222Z,985.46
2022-08-10T09:28:41.786Z,985.49
2022-08-10T09:29:41.714Z,985.48
2022-08-10T09:30:52.224Z,985.56
2022-08-10T09:31:41.578Z,985.50
2022-08-10T09:36:16.604Z,985.45
2022-08-10T09:36:20.691Z,985.43
2022-08-10T09:36:26.168Z,985.47
2022-08-10T09:36:29.730Z,985.50
2022-08-10T09:36:41.793Z,985.44
2022-08-10T09:38:01.658Z,985.45
2022-08-10T09:38:41.091Z,985.42
2022-08-10T09:40:56.913Z,985.38
2022-08-10T09:41:00.368Z,985.37
2022-08-10T09:41:40.975Z,985.40
2022-08-10T09:42:40.830Z,985.46
2022-08-10T09:43:40.748Z,985.46
2022-08-10T09:44:57.067Z,985.42
2022-08-10T09:45:40.614Z,985.41
2022-08-10T09:46:40.545Z,985.41
2022-08-10T09:48:01.829Z,985.36
2022-08-10T09:48:40.401Z,985.38
2022-08-10T09:49:57.826Z,985.36
2022-08-10T09:51:16.387Z,985.36
2022-08-10T09:51:45.731Z,985.37
2022-08-10T09:52:40.128Z,985.39
2022-08-10T09:53:40.057Z,985.38
2022-08-10T09:54:39.988Z,985.35
2022-08-10T09:56:17.667Z,985.35
2022-08-10T09:56:39.856Z,985.35
2022-08-10T09:57:54.782Z,985.29
2022-08-10T09:58:39.713Z,985.31
2022-08-10T10:00:01.446Z,985.37
2022-08-10T10:00:39.584Z,985.32
2022-08-10T10:02:02.868Z,985.36
2022-08-10T10:02:39.440Z,985.27
2022-08-10T10:03:39.410Z,985.41
2022-08-10T10:04:39.305Z,985.37
2022-08-10T10:05:39.236Z,985.40
2022-08-10T10:06:39.165Z,985.35
2022-08-10T10:07:39.106Z,985.31
2022-08-10T10:08:42.701Z,985.29
2022-08-10T10:09:38.966Z,985.33
2022-08-10T10:10:46.547Z,985.25
2022-08-10T10:11:38.825Z,985.25
2022-08-10T10:12:38.760Z,985.27
2022-08-10T10:14:02.195Z,985.22
2022-08-10T10:14:38.628Z,985.22
2022-08-10T10:15:38.559Z,985.20
2022-08-10T10:16:38.485Z,985.13
2022-08-10T10:17:38.533Z,985.20
2022-08-10T10:18:38.355Z,985.20
2022-08-10T10:19:40.770Z,985.23
2022-08-10T10:20:38.217Z,985.22
2022-08-10T10:21:54.694Z,985.13
2022-08-10T10:22:38.077Z,985.10
2022-08-10T10:23:38.016Z,985.09
2022-08-10T10:24:37.940Z,985.10
2022-08-10T10:25:50.721Z,985.13
2022-08-10T10:26:37.809Z,985.11
2022-08-10T10:27:37.941Z,985.08
2022-08-10T10:29:15.357Z,985.11
2022-08-10T10:29:57.449Z,985.02
2022-08-10T10:30:37.534Z,985.05
2022-08-10T10:31:37.463Z,985.07
2022-08-10T10:32:37.621Z,985.07
2022-08-10T10:33:37.332Z,985.09
2022-08-10T10:34:37.262Z,985.12
2022-08-10T10:35:37.193Z,985.10
2022-08-10T10:36:37.127Z,985.08
2022-08-10T10:38:01.128Z,985.13
2022-08-10T10:38:36.997Z,985.08
2022-08-10T10:39:37.054Z,985.09
2022-08-10T10:40:36.854Z,985.05
2022-08-10T10:41:55.872Z,985.03
2022-08-10T10:42:47.140Z,985.06
2022-08-10T10:43:36.653Z,985.03
2022-08-10T10:44:41.551Z,985.07
2022-08-10T10:45:41.655Z,985.01
2022-08-10T10:46:36.443Z,985.00
2022-08-10T10:47:36.495Z,984.99
2022-08-10T10:48:36.314Z,984.97
2022-08-10T10:49:36.243Z,984.94
2022-08-10T10:50:36.171Z,984.92
2022-08-10T10:51:36.109Z,984.94
2022-08-10T10:52:36.042Z,984.99
2022-08-10T10:53:35.969Z,985.01
2022-08-10T10:54:35.902Z,984.96
2022-08-10T10:56:13.386Z,984.98
2022-08-10T10:56:35.766Z,984.94
2022-08-10T10:57:59.458Z,984.95
2022-08-10T10:58:35.634Z,984.95
2022-08-10T10:59:55.448Z,984.98
2022-08-10T11:00:35.495Z,984.89
2022-08-10T11:01:35.462Z,984.90
2022-08-10T11:02:35.371Z,984.90
2022-08-10T11:03:35.373Z,984.88
2022-08-10T11:04:35.224Z,984.90
2022-08-10T11:05:35.154Z,984.89
2022-08-10T11:06:40.530Z,984.89
2022-08-10T11:07:35.204Z,984.93
2022-08-10T11:08:34.947Z,984.88
2022-08-10T11:10:03.806Z,984.97
2022-08-10T11:10:37.456Z,984.89
2022-08-10T11:12:02.085Z,984.81
2022-08-10T11:12:34.678Z,984.87
2022-08-10T11:14:25.530Z,984.89
2022-08-10T11:14:34.540Z,984.89
2022-08-10T11:15:34.475Z,984.85
2022-08-10T11:16:34.403Z,984.89
2022-08-10T11:17:34.364Z,984.88
2022-08-10T11:18:34.268Z,984.82
2022-08-10T11:20:02.815Z,984.80
2022-08-10T11:20:34.134Z,984.86
2022-08-10T11:21:34.063Z,984.90
2022-08-10T11:22:36.766Z,984.86
2022-08-10T11:23:33.960Z,984.81
2022-08-10T11:24:49.103Z,984.84
2022-08-10T11:25:33.794Z,984.83
2022-08-10T11:26:33.721Z,984.83
2022-08-10T11:27:33.715Z,984.81
2022-08-10T11:28:34.984Z,984.75
2022-08-10T11:29:33.517Z,984.77
2022-08-10T11:30:33.448Z,984.78
2022-08-10T11:31:33.389Z,984.80
2022-08-10T11:32:33.309Z,984.81
2022-08-10T11:33:39.316Z,984.79
2022-08-10T11:34:49.125Z,984.83
2022-08-10T11:35:35.094Z,984.84
2022-08-10T11:36:33.039Z,984.78
2022-08-10T11:38:34.209Z,984.71
2022-08-10T11:38:47.203Z,984.75
2022-08-10T11:39:32.845Z,984.67
2022-08-10T11:40:32.764Z,984.66
2022-08-10T11:42:08.022Z,984.71
2022-08-10T11:42:36.233Z,984.63
2022-08-10T11:43:32.603Z,984.70
2022-08-10T11:44:32.496Z,984.68
2022-08-10T11:45:32.425Z,984.67
2022-08-10T11:46:32.360Z,984.65
2022-08-10T11:47:32.293Z,984.58
2022-08-10T11:48:53.692Z,984.69
2022-08-10T11:49:32.155Z,984.57
2022-08-10T11:50:32.087Z,984.56
2022-08-10T11:51:32.021Z,984.60
2022-08-10T11:52:32.099Z,984.56
2022-08-10T11:53:38.801Z,984.58
2022-08-10T11:54:31.826Z,984.57
2022-08-10T11:55:31.751Z,984.60
2022-08-10T11:56:31.683Z,984.58
2022-08-10T11:57:53.557Z,984.58
2022-08-10T11:58:31.553Z,984.51
2022-08-10T11:59:31.483Z,984.51
2022-08-10T12:00:32.406Z,984.58
2022-08-10T12:01:31.347Z,984.57
2022-08-10T12:02:31.325Z,984.49
2022-08-10T12:03:34.567Z,984.52
2022-08-10T12:04:31.144Z,984.48
2022-08-10T12:05:51.695Z,984.53
2022-08-10T12:06:54.354Z,984.50
2022-08-10T12:10:05.627Z,984.46
2022-08-10T12:10:06.914Z,984.48
2022-08-10T12:10:08.808Z,984.48
2022-08-10T12:10:30.742Z,984.47
2022-08-10T12:11:30.672Z,984.47
2022-08-10T12:12:30.605Z,984.51
2022-08-10T12:13:30.538Z,984.56
2022-08-10T12:14:30.475Z,984.50
2022-08-10T12:15:30.406Z,984.56
2022-08-10T12:16:30.342Z,984.53
2022-08-10T12:17:30.272Z,984.49
2022-08-10T12:18:30.206Z,984.55
2022-08-10T12:19:30.141Z,984.58
2022-08-10T12:20:30.073Z,984.55
2022-08-10T12:21:30.005Z,984.52
2022-08-10T12:22:29.941Z,984.45
2022-08-10T12:23:29.872Z,984.40
2022-08-10T12:24:29.804Z,984.36
2022-08-10T12:25:55.724Z,984.40
2022-08-10T12:26:29.675Z,984.40
2022-08-10T12:27:29.602Z,984.37